Pink Coral — 9HPY9 — position and weather

sailwx.info

Track history (hours):
 
Tides and Currents Weather Stations Pressure Air Temp Water Temp Dewpoint Dewpoint Depression Visibility Wind Speed Wind Dir Waves Ship Positions

Pink Coral

Last reported at 2014-Sep-01 18:31 UTC. Time now 2014-Sep-01 18:46 UTC.
Position N 44°11' E 008°45'.

Length 183 m; draft 10.4 m.

Type: Ship (hazmat cat A). MMSI: 249344000.

Date/timePositionNaut miles runAvg speedWind from/ knotsBaromVisibWave heightAir tempDewpointWater temp
2014-Sep-01 18:31N 44°11' E 008°45'1 0.6
2014-Sep-01 17:25N 44°12' E 008°46'0 0.3
2014-Sep-01 16:31N 44°12' E 008°46'5 5.3
2014-Sep-01 15:33N 44°17' E 008°49'2 1.9
2014-Sep-01 14:33N 44°16' E 008°51'1313.0
2014-Sep-01 13:33N 44°04' E 008°59'1313.4
2014-Sep-01 12:34N 43°53' E 009°08'1413.7
2014-Sep-01 11:33N 43°40' E 009°16'1414.0
2014-Sep-01 10:33N 43°27' E 009°23'1413.9
2014-Sep-01 09:33N 43°15' E 009°31'29513.4
2014-Aug-31 11:31N 38°32' E 011°21'1413.7
2014-Aug-31 10:32N 38°19' E 011°29'11013.3
2014-Aug-31 02:18N 37°04' E 013°10'1013.9
2014-Aug-31 01:33N 36°57' E 013°19'1413.9
2014-Aug-31 00:33N 36°48' E 013°33'1513.8
2014-Aug-30 23:28N 36°38' E 013°46'1313.9
2014-Aug-30 22:33N 36°29' E 013°58'1713.9
2014-Aug-30 21:18N 36°18' E 014°15'1013.7
2014-Aug-30 20:34N 36°11' E 014°24'2013.5
2014-Aug-30 19:07N 35°59' E 014°42'712.5
2014-Aug-30 18:32N 35°54' E 014°49'4 2.1
2014-Aug-30 16:31N 35°51' E 014°53'2 0.1
2014-Aug-30 01:22N 35°49' E 014°53'0 0.0
2014-Aug-30 00:10N 35°49' E 014°53'0 0.0
2014-Aug-29 23:13N 35°49' E 014°53'0 0.0
2014-Aug-29 22:31N 35°49' E 014°53'0 0.0
2014-Aug-29 21:31N 35°49' E 014°53'0 0.0
2014-Aug-29 20:31N 35°49' E 014°53'0 0.0
2014-Aug-29 19:31N 35°49' E 014°53'0 0.0
2014-Aug-29 18:31N 35°49' E 014°53'0 0.0
2014-Aug-29 17:31N 35°49' E 014°53'0 0.0
2014-Aug-29 16:31N 35°49' E 014°53'0 0.3
2014-Aug-29 15:33N 35°49' E 014°53'4 3.7
2014-Aug-29 14:33N 35°47' E 014°57'4 4.2
2014-Aug-29 13:33N 35°46' E 015°02'1 1.1
2014-Aug-29 12:33N 35°47' E 015°01'6 5.5
2014-Aug-29 11:33N 35°48' E 014°54'5 4.9
2014-Aug-29 10:33N 35°52' E 014°51'1111.5
2014-Aug-29 09:33N 35°59' E 014°40'1312.9
2014-Aug-29 08:33N 36°06' E 014°27'1313.0
2014-Aug-29 07:33N 36°12' E 014°13'1313.2
2014-Aug-29 06:33N 36°18' E 013°58'1313.5
2014-Aug-29 05:33N 36°23' E 013°43'1413.9
2014-Aug-29 04:34N 36°30' E 013°27'1414.4
2014-Aug-29 03:34N 36°36' E 013°11'1413.9
2014-Aug-29 02:33N 36°42' E 012°55'1413.7
2014-Aug-29 01:33N 36°48' E 012°40'1413.6
2014-Aug-29 00:34N 36°53' E 012°24'1313.4
2014-Aug-28 23:33N 36°59' E 012°09'1413.9
2014-Aug-28 22:33N 37°05' E 011°53'1413.6
2014-Aug-28 21:33N 37°11' E 011°38'1313.5
2014-Aug-28 20:33N 37°17' E 011°23'1413.5
2014-Aug-28 19:33N 37°23' E 011°08'1313.3
2014-Aug-28 18:33N 37°30' E 010°54'1313.4
2014-Aug-28 17:33N 37°37' E 010°39'1413.9
2014-Aug-28 16:33N 37°44' E 010°24'1514.3
2014-Aug-28 15:31N 37°52' E 010°08'1314.0
2014-Aug-28 14:33N 37°59' E 009°53'1413.7
2014-Aug-28 13:33N 38°06' E 009°38'1414.1
2014-Aug-28 12:33N 38°13' E 009°23'1413.9
2014-Aug-28 11:33N 38°21' E 009°08'1413.7
2014-Aug-28 10:33N 38°28' E 008°53'1413.7
2014-Aug-28 09:33N 38°36' E 008°39'1313.3
2014-Aug-28 08:33N 38°43' E 008°24'1613.2
2014-Aug-28 07:19N 38°55' E 008°10'1013.0
2014-Aug-28 06:33N 39°02' E 008°02'1613.3
2014-Aug-28 05:23N 39°15' E 007°51'1113.4
2014-Aug-28 04:32N 39°25' E 007°44'1613.2
2014-Aug-28 03:20N 39°39' E 007°34'1113.3
2014-Aug-28 02:29N 39°49' E 007°27'1213.4
2014-Aug-28 01:33N 40°00' E 007°19'389300.2
2014-Aug-28 00:16N 40°15' E 015°47'400571.1
2014-Aug-27 23:34N 40°23' E 007°03'1313.2
2014-Aug-27 22:33N 40°35' E 006°54'1313.2
2014-Aug-27 21:33N 40°47' E 006°46'1313.2
2014-Aug-27 20:33N 40°58' E 006°38'1313.2
2014-Aug-27 19:33N 41°10' E 006°29'1413.4
2014-Aug-27 18:33N 41°21' E 006°21'1413.6
2014-Aug-27 17:33N 41°33' E 006°11'1313.3
2014-Aug-27 16:33N 41°44' E 006°02'1413.5
2014-Aug-27 15:33N 41°56' E 005°52'1313.3
2014-Aug-27 14:33N 42°07' E 005°42'1413.3
2014-Aug-27 13:32N 42°18' E 005°32'1313.4
2014-Aug-27 12:33N 42°29' E 005°23'1313.3
2014-Aug-27 11:33N 42°41' E 005°14'1212.3
2014-Aug-27 10:33N 42°51' E 005°06'4 4.4
2014-Aug-27 09:33N 42°56' E 005°05'3 3.1
2014-Aug-27 08:33N 42°59' E 005°06'2 1.8
2014-Aug-27 07:33N 43°01' E 005°06'3 2.9
2014-Aug-27 06:33N 43°03' E 005°06'1212.3
2014-Aug-27 05:33N 43°15' E 004°60'10 9.9
2014-Aug-27 04:33N 43°24' E 004°55'1 1.0
2014-Aug-27 03:33N 43°25' E 004°54'0 0.0
2014-Aug-27 02:33N 43°25' E 004°54'0 0.0
2014-Aug-27 01:33N 43°25' E 004°54'0 0.0
2014-Aug-27 00:33N 43°25' E 004°54'0 0.0
2014-Aug-26 23:33N 43°25' E 004°54'0 0.0
2014-Aug-26 22:33N 43°25' E 004°54'0 0.0
2014-Aug-26 21:33N 43°25' E 004°54'0 0.0
2014-Aug-26 20:33N 43°25' E 004°54'0 0.0
2014-Aug-26 19:33N 43°25' E 004°54'0 0.0
2014-Aug-26 18:30N 43°25' E 004°54'0 0.0
2014-Aug-26 17:33N 43°25' E 004°54'0 0.0
2014-Aug-26 16:33N 43°25' E 004°54'0 0.0
2014-Aug-26 15:33N 43°25' E 004°54'0 0.0
2014-Aug-26 14:33N 43°25' E 004°54'0 0.0
2014-Aug-26 13:33N 43°25' E 004°54'0 0.0
2014-Aug-26 12:33N 43°25' E 004°54'0 0.0
2014-Aug-26 11:33N 43°25' E 004°54'0 0.0
2014-Aug-26 10:33N 43°25' E 004°54'0 0.0
2014-Aug-26 09:33N 43°25' E 004°54'0 0.0
2014-Aug-26 08:33N 43°25' E 004°54'0 0.0
2014-Aug-26 07:33N 43°25' E 004°54'0 0.0
2014-Aug-26 06:33N 43°25' E 004°54'0 0.0
2014-Aug-26 05:33N 43°25' E 004°54'0 0.0
2014-Aug-26 04:33N 43°25' E 004°54'0 0.0
2014-Aug-26 03:33N 43°25' E 004°54'0 0.0
2014-Aug-26 02:33N 43°25' E 004°54'0 0.0
2014-Aug-26 01:30N 43°25' E 004°54'0 0.0
2014-Aug-26 00:33N 43°25' E 004°54'0 0.0
2014-Aug-25 23:33N 43°25' E 004°54'0 0.0
2014-Aug-25 22:33N 43°25' E 004°54'0 0.0
2014-Aug-25 21:33N 43°25' E 004°54'0 0.0
2014-Aug-25 20:33N 43°25' E 004°54'2 2.0
2014-Aug-25 19:33N 43°24' E 004°56'9 9.4
2014-Aug-25 18:33N 43°15' E 005°01'1313.2
2014-Aug-25 17:33N 43°03' E 005°09'1413.6
2014-Aug-25 16:33N 42°51' E 005°18'1413.8
2014-Aug-25 15:33N 42°39' E 005°27'1313.5
2014-Aug-25 14:34N 42°27' E 005°35'1413.6
2014-Aug-25 13:33N 42°15' E 005°44'1413.8
2014-Aug-25 12:33N 42°03' E 005°52'1513.7
2014-Aug-25 11:28N 41°50' E 006°03'1213.7
2014-Aug-25 10:33N 41°39' E 006°10'1413.8
2014-Aug-25 09:33N 41°26' E 006°18'1413.5
2014-Aug-25 08:33N 41°15' E 006°27'12113.3
2014-Aug-24 23:30N 39°28' E 007°42'5113.0
2014-Aug-24 19:33N 38°45' E 008°19'1312.7
2014-Aug-24 18:33N 38°39' E 008°33'1312.6
2014-Aug-24 17:33N 38°35' E 008°48'1312.2
2014-Aug-24 16:30N 38°31' E 009°03'2412.4
2014-Aug-24 14:33N 38°23' E 009°33'1312.6
2014-Aug-24 13:33N 38°19' E 009°48'2812.8
2014-Aug-24 11:22N 38°10' E 010°21'18313.0
2014-Aug-23 21:17N 36°49' E 013°49'1013.8
2014-Aug-23 20:33N 36°44' E 013°60'1313.3
2014-Aug-23 19:33N 36°38' E 014°14'  
Track history (hours):
 
Tides and Currents Weather Stations Pressure Air Temp Water Temp Dewpoint Dewpoint Depression Visibility Wind Speed Wind Dir Waves Ship Positions

Pink Coral

Last reported at 2014-Sep-01 18:31 UTC. Time now 2014-Sep-01 18:46 UTC.
Position N 44°11' E 008°45'.

Length 183 m; draft 10.4 m.

Type: Ship (hazmat cat A). MMSI: 249344000.

Date/timePositionNaut miles runAvg speedWind from/ knotsBaromVisibWave heightAir tempDewpointWater temp
2014-Sep-01 18:31N 44°11' E 008°45'1 0.6
2014-Sep-01 17:25N 44°12' E 008°46'0 0.3
2014-Sep-01 16:31N 44°12' E 008°46'5 5.3
2014-Sep-01 15:33N 44°17' E 008°49'2 1.9
2014-Sep-01 14:33N 44°16' E 008°51'1313.0
2014-Sep-01 13:33N 44°04' E 008°59'1313.4
2014-Sep-01 12:34N 43°53' E 009°08'1413.7
2014-Sep-01 11:33N 43°40' E 009°16'1414.0
2014-Sep-01 10:33N 43°27' E 009°23'1413.9
2014-Sep-01 09:33N 43°15' E 009°31'29513.4
2014-Aug-31 11:31N 38°32' E 011°21'1413.7
2014-Aug-31 10:32N 38°19' E 011°29'11013.3
2014-Aug-31 02:18N 37°04' E 013°10'1013.9
2014-Aug-31 01:33N 36°57' E 013°19'1413.9
2014-Aug-31 00:33N 36°48' E 013°33'1513.8
2014-Aug-30 23:28N 36°38' E 013°46'1313.9
2014-Aug-30 22:33N 36°29' E 013°58'1713.9
2014-Aug-30 21:18N 36°18' E 014°15'1013.7
2014-Aug-30 20:34N 36°11' E 014°24'2013.5
2014-Aug-30 19:07N 35°59' E 014°42'712.5
2014-Aug-30 18:32N 35°54' E 014°49'4 2.1
2014-Aug-30 16:31N 35°51' E 014°53'2 0.1
2014-Aug-30 01:22N 35°49' E 014°53'0 0.0
2014-Aug-30 00:10N 35°49' E 014°53'0 0.0
2014-Aug-29 23:13N 35°49' E 014°53'0 0.0
2014-Aug-29 22:31N 35°49' E 014°53'0 0.0
2014-Aug-29 21:31N 35°49' E 014°53'0 0.0
2014-Aug-29 20:31N 35°49' E 014°53'0 0.0
2014-Aug-29 19:31N 35°49' E 014°53'0 0.0
2014-Aug-29 18:31N 35°49' E 014°53'0 0.0
2014-Aug-29 17:31N 35°49' E 014°53'0 0.0
2014-Aug-29 16:31N 35°49' E 014°53'0 0.3
2014-Aug-29 15:33N 35°49' E 014°53'4 3.7
2014-Aug-29 14:33N 35°47' E 014°57'4 4.2
2014-Aug-29 13:33N 35°46' E 015°02'1 1.1
2014-Aug-29 12:33N 35°47' E 015°01'6 5.5
2014-Aug-29 11:33N 35°48' E 014°54'5 4.9
2014-Aug-29 10:33N 35°52' E 014°51'1111.5
2014-Aug-29 09:33N 35°59' E 014°40'1312.9
2014-Aug-29 08:33N 36°06' E 014°27'1313.0
2014-Aug-29 07:33N 36°12' E 014°13'1313.2
2014-Aug-29 06:33N 36°18' E 013°58'1313.5
2014-Aug-29 05:33N 36°23' E 013°43'1413.9
2014-Aug-29 04:34N 36°30' E 013°27'1414.4
2014-Aug-29 03:34N 36°36' E 013°11'1413.9
2014-Aug-29 02:33N 36°42' E 012°55'1413.7
2014-Aug-29 01:33N 36°48' E 012°40'1413.6
2014-Aug-29 00:34N 36°53' E 012°24'1313.4
2014-Aug-28 23:33N 36°59' E 012°09'1413.9
2014-Aug-28 22:33N 37°05' E 011°53'1413.6
2014-Aug-28 21:33N 37°11' E 011°38'1313.5
2014-Aug-28 20:33N 37°17' E 011°23'1413.5
2014-Aug-28 19:33N 37°23' E 011°08'1313.3
2014-Aug-28 18:33N 37°30' E 010°54'1313.4
2014-Aug-28 17:33N 37°37' E 010°39'1413.9
2014-Aug-28 16:33N 37°44' E 010°24'1514.3
2014-Aug-28 15:31N 37°52' E 010°08'1314.0
2014-Aug-28 14:33N 37°59' E 009°53'1413.7
2014-Aug-28 13:33N 38°06' E 009°38'1414.1
2014-Aug-28 12:33N 38°13' E 009°23'1413.9
2014-Aug-28 11:33N 38°21' E 009°08'1413.7
2014-Aug-28 10:33N 38°28' E 008°53'1413.7
2014-Aug-28 09:33N 38°36' E 008°39'1313.3
2014-Aug-28 08:33N 38°43' E 008°24'1613.2
2014-Aug-28 07:19N 38°55' E 008°10'1013.0
2014-Aug-28 06:33N 39°02' E 008°02'1613.3
2014-Aug-28 05:23N 39°15' E 007°51'1113.4
2014-Aug-28 04:32N 39°25' E 007°44'1613.2
2014-Aug-28 03:20N 39°39' E 007°34'1113.3
2014-Aug-28 02:29N 39°49' E 007°27'1213.4
2014-Aug-28 01:33N 40°00' E 007°19'389300.2
2014-Aug-28 00:16N 40°15' E 015°47'400571.1
2014-Aug-27 23:34N 40°23' E 007°03'1313.2
2014-Aug-27 22:33N 40°35' E 006°54'1313.2
2014-Aug-27 21:33N 40°47' E 006°46'1313.2
2014-Aug-27 20:33N 40°58' E 006°38'1313.2
2014-Aug-27 19:33N 41°10' E 006°29'1413.4
2014-Aug-27 18:33N 41°21' E 006°21'1413.6
2014-Aug-27 17:33N 41°33' E 006°11'1313.3
2014-Aug-27 16:33N 41°44' E 006°02'1413.5
2014-Aug-27 15:33N 41°56' E 005°52'1313.3
2014-Aug-27 14:33N 42°07' E 005°42'1413.3
2014-Aug-27 13:32N 42°18' E 005°32'1313.4
2014-Aug-27 12:33N 42°29' E 005°23'1313.3
2014-Aug-27 11:33N 42°41' E 005°14'1212.3
2014-Aug-27 10:33N 42°51' E 005°06'4 4.4
2014-Aug-27 09:33N 42°56' E 005°05'3 3.1
2014-Aug-27 08:33N 42°59' E 005°06'2 1.8
2014-Aug-27 07:33N 43°01' E 005°06'3 2.9
2014-Aug-27 06:33N 43°03' E 005°06'1212.3
2014-Aug-27 05:33N 43°15' E 004°60'10 9.9
2014-Aug-27 04:33N 43°24' E 004°55'1 1.0
2014-Aug-27 03:33N 43°25' E 004°54'0 0.0
2014-Aug-27 02:33N 43°25' E 004°54'0 0.0
2014-Aug-27 01:33N 43°25' E 004°54'0 0.0
2014-Aug-27 00:33N 43°25' E 004°54'0 0.0
2014-Aug-26 23:33N 43°25' E 004°54'0 0.0
2014-Aug-26 22:33N 43°25' E 004°54'0 0.0
2014-Aug-26 21:33N 43°25' E 004°54'0 0.0
2014-Aug-26 20:33N 43°25' E 004°54'0 0.0
2014-Aug-26 19:33N 43°25' E 004°54'0 0.0
2014-Aug-26 18:30N 43°25' E 004°54'0 0.0
2014-Aug-26 17:33N 43°25' E 004°54'0 0.0
2014-Aug-26 16:33N 43°25' E 004°54'0 0.0
2014-Aug-26 15:33N 43°25' E 004°54'0 0.0
2014-Aug-26 14:33N 43°25' E 004°54'0 0.0
2014-Aug-26 13:33N 43°25' E 004°54'0 0.0
2014-Aug-26 12:33N 43°25' E 004°54'0 0.0
2014-Aug-26 11:33N 43°25' E 004°54'0 0.0
2014-Aug-26 10:33N 43°25' E 004°54'0 0.0
2014-Aug-26 09:33N 43°25' E 004°54'0 0.0
2014-Aug-26 08:33N 43°25' E 004°54'0 0.0
2014-Aug-26 07:33N 43°25' E 004°54'0 0.0
2014-Aug-26 06:33N 43°25' E 004°54'0 0.0
2014-Aug-26 05:33N 43°25' E 004°54'0 0.0
2014-Aug-26 04:33N 43°25' E 004°54'0 0.0
2014-Aug-26 03:33N 43°25' E 004°54'0 0.0
2014-Aug-26 02:33N 43°25' E 004°54'0 0.0
2014-Aug-26 01:30N 43°25' E 004°54'0 0.0
2014-Aug-26 00:33N 43°25' E 004°54'0 0.0
2014-Aug-25 23:33N 43°25' E 004°54'0 0.0
2014-Aug-25 22:33N 43°25' E 004°54'0 0.0
2014-Aug-25 21:33N 43°25' E 004°54'0 0.0
2014-Aug-25 20:33N 43°25' E 004°54'2 2.0
2014-Aug-25 19:33N 43°24' E 004°56'9 9.4
2014-Aug-25 18:33N 43°15' E 005°01'1313.2
2014-Aug-25 17:33N 43°03' E 005°09'1413.6
2014-Aug-25 16:33N 42°51' E 005°18'1413.8
2014-Aug-25 15:33N 42°39' E 005°27'1313.5
2014-Aug-25 14:34N 42°27' E 005°35'1413.6
2014-Aug-25 13:33N 42°15' E 005°44'1413.8
2014-Aug-25 12:33N 42°03' E 005°52'1513.7
2014-Aug-25 11:28N 41°50' E 006°03'1213.7
2014-Aug-25 10:33N 41°39' E 006°10'1413.8
2014-Aug-25 09:33N 41°26' E 006°18'1413.5
2014-Aug-25 08:33N 41°15' E 006°27'12113.3
2014-Aug-24 23:30N 39°28' E 007°42'5113.0
2014-Aug-24 19:33N 38°45' E 008°19'1312.7
2014-Aug-24 18:33N 38°39' E 008°33'1312.6
2014-Aug-24 17:33N 38°35' E 008°48'1312.2
2014-Aug-24 16:30N 38°31' E 009°03'2412.4
2014-Aug-24 14:33N 38°23' E 009°33'1312.6
2014-Aug-24 13:33N 38°19' E 009°48'2812.8
2014-Aug-24 11:22N 38°10' E 010°21'18313.0
2014-Aug-23 21:17N 36°49' E 013°49'1013.8
2014-Aug-23 20:33N 36°44' E 013°60'1313.3
2014-Aug-23 19:33N 36°38' E 014°14'  

Dump ship's entire track history